15AL weather

Highfalls Stagefield Army Heliport
Fort Rucker/Hartford, Alabama, United States

Public forecast

Using degrees Fahrenheit for public forecast. Weather courtesy of forecast.io.

METAR (pilot weather report)

Closest report is Cairns AAF (Fort Rucker) Air Field, 11.6 nm (21.5 km) NNE. Retrieved 2018/07/20 18:56 UTC (25 minutes ago):

KOZR 201856Z AUTO 01007KT 10SM FEW039 FEW130 SCT170 31/23 A2995 RMK AO2 SLP141 T03080234

TAF (pilot weather forecast)

Closest forecast is Cairns AAF (Fort Rucker) Air Field, 11.6 nm (21.5 km) NNE. Retrieved 2018/07/20 16:06 UTC (3 hours ago):

TAF TAF KOZR 201600Z 2016/2122 18006KT 9999 SCT030 QNH2989INS BECMG 2019/2020 18012KT 9000 -SHRA VCTS SCT025CB BKN040 QNH2987INS BECMG 2101/2102 VRB06KT 9999 NSW SCT015 BKN025 QNH2992INS BECMG 2106/2107 VRB06KT 4800 BR BKN005 QNH2993INS BECMG 2113/2114 02006KT 9999 NSW SCT015 SCT040 QNH2989INS BECMG 2118/2119 17010G15KT 9000 -SHRA VCTS SCT030CB BKN040 QNH2995INS TEMPO 2119/2122 VRB15G30KT 4800 TSRA BKN020CB TX32/2022Z TN24/2112Z